Time;durP1;ratioP1;P1;durP2;ratioP2;P2;SDS_P1;SDS_P2;PMS_P1;PMS_P2;Temp;Humidity;BMP_temperature;BMP_pressure;BME280_temperature;BME280_humidity;BME280_pressure;Samples;Min_cycle;Max_cycle;Signal;HPM_P1;HPM_P2
2021/01/28 00:00:39;;;;;;;7.13;4.60;;;;;;;-3.83;76.43;100831.47;6229259;28;20189;-72
2021/01/28 00:03:42;;;;;;;10.80;4.43;;;;;;;-4.09;76.91;100832.75;6227337;28;20228;-74
2021/01/28 00:06:47;;;;;;;9.47;4.90;;;;;;;-4.15;77.08;100835.91;6223268;28;20546;-73
2021/01/28 00:09:50;;;;;;;5.03;4.33;;;;;;;-4.19;76.78;100829.13;6220006;28;20198;-72
2021/01/28 00:12:53;;;;;;;5.30;4.83;;;;;;;-4.25;76.79;100823.44;6230710;28;20342;-76
2021/01/28 00:15:58;;;;;;;6.30;4.73;;;;;;;-3.98;75.75;100823.91;6226107;28;20220;-73
2021/01/28 00:19:01;;;;;;;6.57;4.67;;;;;;;-4.18;76.44;100824.63;6223228;28;20200;-73
2021/01/28 00:22:07;;;;;;;4.77;4.37;;;;;;;-4.24;76.67;100828.66;6229655;28;20262;-73
2021/01/28 00:25:12;;;;;;;4.40;4.17;;;;;;;-4.17;75.88;100823.66;6229940;28;20362;-73
2021/01/28 00:28:19;;;;;;;5.43;4.83;;;;;;;-4.21;75.96;100814.25;6227160;28;20233;-73
2021/01/28 00:31:26;;;;;;;7.23;4.93;;;;;;;-3.99;75.74;100809.72;6220215;28;20607;-74
2021/01/28 00:34:29;;;;;;;7.13;4.93;;;;;;;-4.08;76.17;100805.13;6235845;28;20215;-73
2021/01/28 00:37:32;;;;;;;5.57;4.53;;;;;;;-4.21;76.98;100815.06;6223324;28;20229;-73
2021/01/28 00:40:36;;;;;;;5.57;4.83;;;;;;;-4.16;76.74;100812.88;6225472;28;20201;-72
2021/01/28 00:43:39;;;;;;;5.20;4.70;;;;;;;-4.16;77.24;100820.88;6221298;28;20279;-72
2021/01/28 00:46:46;;;;;;;4.50;4.13;;;;;;;-4.03;76.81;100813.59;6223712;28;20449;-73
2021/01/28 00:49:49;;;;;;;5.40;4.70;;;;;;;-4.14;77.05;100808.31;6225259;28;20187;-72
2021/01/28 00:52:53;;;;;;;9.53;4.50;;;;;;;-4.14;76.88;100804.78;6219746;28;20301;-73
2021/01/28 00:55:56;;;;;;;6.00;4.67;;;;;;;-4.07;77.38;100809.50;6221539;28;20603;-76
2021/01/28 00:59:10;;;;;;;4.80;4.50;;;;;;;-3.90;76.49;100792.97;6221792;28;20212;-74
2021/01/28 01:02:16;;;;;;;4.83;4.10;;;;;;;-3.63;75.72;100791.66;6228723;28;20591;-74
2021/01/28 01:05:22;;;;;;;7.20;4.60;;;;;;;-3.81;76.72;100786.88;6228402;28;20211;-73
2021/01/28 01:08:28;;;;;;;4.23;3.93;;;;;;;-3.84;77.04;100791.59;6226627;28;20207;-76
2021/01/28 01:11:38;;;;;;;4.97;4.47;;;;;;;-3.94;78.01;100788.88;6223635;28;20222;-73
2021/01/28 01:14:42;;;;;;;4.37;3.80;;;;;;;-3.96;78.31;100769.50;6225795;28;20208;-74
2021/01/28 01:17:47;;;;;;;4.90;4.37;;;;;;;-4.07;78.86;100768.66;6223929;28;20212;-74
2021/01/28 01:20:56;;;;;;;4.33;3.97;;;;;;;-3.88;79.14;100764.34;6226251;28;20202;-72
2021/01/28 01:24:03;;;;;;;5.37;4.57;;;;;;;-3.89;79.29;100760.00;6228542;28;20272;-73
2021/01/28 01:27:09;;;;;;;4.50;4.00;;;;;;;-3.92;78.95;100757.59;6232099;28;20197;-73
2021/01/28 01:30:15;;;;;;;6.13;4.67;;;;;;;-4.47;80.98;100760.41;6237529;28;20287;-71
2021/01/28 01:33:23;;;;;;;5.30;4.87;;;;;;;-4.55;82.23;100763.69;6219129;28;20255;-75
2021/01/28 01:36:45;;;;;;;8.40;5.00;;;;;;;-4.69;82.89;100749.75;6222521;28;20342;-74
2021/01/28 01:39:49;;;;;;;6.83;5.50;;;;;;;-4.53;82.55;100748.44;6227860;28;20202;-75
2021/01/28 01:42:53;;;;;;;5.93;4.90;;;;;;;-4.34;82.64;100738.97;6219808;28;20216;-73
2021/01/28 01:46:02;;;;;;;4.90;4.33;;;;;;;-4.28;81.90;100744.63;6225244;28;20202;-74
2021/01/28 01:49:16;;;;;;;6.73;5.30;;;;;;;-4.29;82.63;100748.28;6219716;28;20202;-72
2021/01/28 01:52:25;;;;;;;5.40;5.03;;;;;;;-4.02;81.65;100740.66;6227890;28;20267;-73
2021/01/28 01:55:31;;;;;;;7.80;5.67;;;;;;;-4.06;81.75;100744.56;6218508;28;20678;-73
2021/01/28 01:58:50;;;;;;;7.03;5.20;;;;;;;-3.93;80.90;100734.56;6220942;28;20256;-73
2021/01/28 02:02:22;;;;;;;5.60;4.90;;;;;;;-3.96;80.97;100734.84;6204489;28;20304;-74
2021/01/28 02:05:51;;;;;;;7.33;5.13;;;;;;;-4.01;80.61;100721.06;6218267;28;20197;-72
2021/01/28 02:09:13;;;;;;;6.03;4.60;;;;;;;-4.81;82.42;100724.13;6222184;28;20534;-72
2021/01/28 02:12:29;;;;;;;5.00;4.43;;;;;;;-4.32;82.17;100716.56;6222120;28;20212;-74
2021/01/28 02:15:40;;;;;;;5.00;4.70;;;;;;;-4.14;81.18;100714.19;6219995;28;20352;-73
2021/01/28 02:18:44;;;;;;;5.47;4.97;;;;;;;-3.95;80.94;100717.88;6221918;28;20202;-73
2021/01/28 02:21:54;;;;;;;6.27;4.60;;;;;;;-3.80;80.64;100713.09;6221709;28;20221;-74
2021/01/28 02:25:05;;;;;;;5.20;4.70;;;;;;;-3.89;80.38;100704.03;6226020;28;20981;-76
2021/01/28 02:28:13;;;;;;;4.80;4.30;;;;;;;-3.93;81.16;100707.91;6224255;28;20250;-75
2021/01/28 02:31:25;;;;;;;3.90;3.70;;;;;;;-3.88;81.08;100689.72;6222258;28;20203;-74
2021/01/28 02:34:31;;;;;;;2.50;2.40;;;;;;;-4.19;81.47;100690.59;6224981;28;20201;-74
2021/01/28 02:37:46;;;;;;;2.97;2.77;;;;;;;-4.32;82.23;100695.25;6219063;28;20361;-73
2021/01/28 02:41:01;;;;;;;2.77;2.67;;;;;;;-4.16;82.09;100692.16;6223958;28;20200;-73
2021/01/28 02:44:11;;;;;;;2.97;2.87;;;;;;;-4.14;82.15;100688.41;6224614;28;20201;-73
2021/01/28 02:47:14;;;;;;;3.07;2.97;;;;;;;-4.13;82.53;100689.22;6221599;28;20236;-73
2021/01/28 02:50:40;;;;;;;3.07;2.97;;;;;;;-3.98;82.19;100678.13;6221238;28;20233;-73
2021/01/28 02:53:47;;;;;;;2.60;2.50;;;;;;;-3.80;81.33;100673.94;6221570;28;20702;-73
2021/01/28 02:56:52;;;;;;;3.13;2.87;;;;;;;-3.86;81.29;100665.63;6223441;28;20202;-74
2021/01/28 02:59:57;;;;;;;3.27;2.90;;;;;;;-3.84;80.64;100659.19;6226790;28;20216;-74
2021/01/28 03:03:03;;;;;;;2.83;2.73;;;;;;;-3.74;80.83;100658.38;6221257;28;20656;-72
2021/01/28 03:06:19;;;;;;;2.53;2.53;;;;;;;-3.73;81.00;100654.75;6219264;28;20646;-74
2021/01/28 03:09:30;;;;;;;3.30;3.10;;;;;;;-3.68;80.96;100652.56;6220649;28;20229;-73
2021/01/28 03:12:57;;;;;;;5.40;3.10;;;;;;;-3.94;81.51;100646.75;6221136;28;20214;-73
2021/01/28 03:16:19;;;;;;;2.43;2.43;;;;;;;-3.76;80.62;100660.34;6218201;28;20693;-72
2021/01/28 03:19:32;;;;;;;2.40;2.33;;;;;;;-3.85;80.86;100659.28;6226606;28;20677;-73
2021/01/28 03:22:47;;;;;;;2.47;2.37;;;;;;;-3.75;79.68;100664.72;6219536;28;20466;-74
2021/01/28 03:26:17;;;;;;;2.50;2.50;;;;;;;-3.96;81.00;100654.03;6195031;28;20703;-74
2021/01/28 03:29:21;;;;;;;2.43;2.43;;;;;;;-3.80;80.43;100654.44;6221220;28;20241;-73
2021/01/28 03:32:25;;;;;;;2.63;2.53;;;;;;;-3.96;80.79;100665.56;6217701;28;20237;-72
2021/01/28 03:35:30;;;;;;;2.90;2.70;;;;;;;-3.84;80.79;100664.50;6241084;28;20660;-72
2021/01/28 03:38:38;;;;;;;2.70;2.60;;;;;;;-3.94;80.19;100663.59;6226316;28;20751;-74
2021/01/28 03:41:41;;;;;;;2.53;2.40;;;;;;;-3.93;80.94;100659.94;6226499;28;20652;-72
2021/01/28 03:44:44;;;;;;;2.70;2.60;;;;;;;-3.73;80.43;100654.75;6225346;28;20201;-72
2021/01/28 03:47:49;;;;;;;4.57;2.53;;;;;;;-3.85;79.93;100665.47;6230698;28;20209;-73
2021/01/28 03:51:07;;;;;;;2.60;2.60;;;;;;;-3.91;80.98;100660.69;6230771;28;20325;-75
2021/01/28 03:54:36;;;;;;;3.07;2.87;;;;;;;-4.06;80.52;100658.47;6224903;28;20640;-75
2021/01/28 03:57:47;;;;;;;2.53;2.53;;;;;;;-4.06;79.96;100653.97;6228111;28;20649;-73
2021/01/28 04:00:51;;;;;;;2.87;2.60;;;;;;;-4.02;79.81;100655.41;6229112;28;20197;-74
2021/01/28 04:03:57;;;;;;;3.70;2.80;;;;;;;-3.85;80.28;100657.47;6221336;28;20442;-72
2021/01/28 04:07:27;;;;;;;2.40;2.37;;;;;;;-3.31;78.45;100648.41;6208016;28;20206;-72
2021/01/28 04:10:33;;;;;;;2.73;2.60;;;;;;;-3.52;78.03;100658.28;6224673;28;20192;-73
2021/01/28 04:13:37;;;;;;;2.70;2.70;;;;;;;-3.65;78.77;100662.97;6234549;28;20248;-73
2021/01/28 04:16:42;;;;;;;2.80;2.70;;;;;;;-3.94;80.05;100663.59;6229911;28;20203;-73
2021/01/28 04:19:46;;;;;;;2.50;2.40;;;;;;;-3.72;78.97;100659.13;6242133;28;20920;-74
2021/01/28 04:22:50;;;;;;;2.43;2.43;;;;;;;-3.49;78.35;100653.50;6232805;28;20238;-73
2021/01/28 04:25:53;;;;;;;2.57;2.57;;;;;;;-3.48;78.59;100644.53;6222475;28;20199;-73
2021/01/28 04:28:57;;;;;;;2.80;2.60;;;;;;;-3.61;78.88;100640.38;6227390;28;20271;-73
2021/01/28 04:32:19;;;;;;;2.83;2.70;;;;;;;-3.53;79.09;100640.56;6223073;28;20214;-72
2021/01/28 04:35:49;;;;;;;2.70;2.60;;;;;;;-3.63;79.29;100640.53;6211679;28;20273;-72
2021/01/28 04:38:55;;;;;;;2.70;2.60;;;;;;;-3.82;79.55;100630.56;6230596;28;20720;-73
2021/01/28 04:41:59;;;;;;;2.23;2.23;;;;;;;-3.74;79.27;100634.41;6221245;28;20206;-73
2021/01/28 04:45:03;;;;;;;2.60;2.60;;;;;;;-3.84;79.72;100632.53;6233186;28;20286;-74
2021/01/28 04:48:12;;;;;;;2.33;2.33;;;;;;;-3.91;80.07;100612.72;6219426;28;20200;-74
2021/01/28 04:51:36;;;;;;;2.70;2.60;;;;;;;-3.85;80.04;100622.84;6228033;28;20356;-74
2021/01/28 04:54:42;;;;;;;2.53;2.37;;;;;;;-3.83;80.32;100612.88;6230231;28;20219;-74
2021/01/28 04:58:01;;;;;;;2.40;2.40;;;;;;;-3.84;80.42;100605.88;6229974;28;20194;-74
2021/01/28 05:01:10;;;;;;;1.97;1.97;;;;;;;-3.95;80.67;100603.25;6219306;28;20548;-73
2021/01/28 05:04:46;;;;;;;2.57;2.57;;;;;;;-3.92;81.18;100602.16;6228259;28;20214;-73
2021/01/28 05:08:04;;;;;;;2.80;2.70;;;;;;;-4.03;81.73;100605.72;6227059;28;20216;-73
2021/01/28 05:11:33;;;;;;;2.90;2.70;;;;;;;-4.07;82.52;100598.97;6225932;28;20198;-73
2021/01/28 05:15:17;;;;;;;2.80;2.70;;;;;;;-4.08;82.53;100602.63;6220776;28;20204;-74
2021/01/28 05:18:59;;;;;;;2.67;2.60;;;;;;;-4.10;82.63;100598.38;6226804;28;20216;-73
2021/01/28 05:22:44;;;;;;;2.83;2.73;;;;;;;-4.01;82.88;100586.97;6207792;28;20209;-75
2021/01/28 05:26:29;;;;;;;2.80;2.70;;;;;;;-3.98;83.23;100582.19;6225681;28;20246;-74
2021/01/28 05:29:43;;;;;;;2.73;2.63;;;;;;;-4.05;83.40;100581.03;6224994;28;20606;-75
2021/01/28 05:32:51;;;;;;;2.90;2.80;;;;;;;-3.96;84.16;100582.94;6229761;28;20229;-74
2021/01/28 05:36:27;;;;;;;2.77;2.67;;;;;;;-3.86;82.99;100580.31;6230684;28;20276;-73
2021/01/28 05:40:09;;;;;;;3.23;3.00;;;;;;;-3.90;83.04;100579.72;6231735;28;20209;-73
2021/01/28 05:43:24;;;;;;;2.83;2.73;;;;;;;-3.85;83.43;100588.19;6221440;28;20221;-76
2021/01/28 05:46:35;;;;;;;3.30;3.10;;;;;;;-3.63;82.85;100581.00;6220128;28;20273;-73
2021/01/28 05:49:51;;;;;;;3.07;2.97;;;;;;;-3.54;82.10;100581.06;6225155;28;20568;-74
2021/01/28 05:53:09;;;;;;;3.07;2.90;;;;;;;-3.65;82.52;100573.16;6228054;28;20218;-73
2021/01/28 05:56:16;;;;;;;2.93;2.80;;;;;;;-3.60;83.16;100573.59;6218184;28;20202;-74
2021/01/28 05:59:34;;;;;;;4.43;3.03;;;;;;;-3.55;82.42;100567.88;6219199;28;20648;-73
2021/01/28 06:02:54;;;;;;;3.20;3.10;;;;;;;-3.46;82.63;100572.38;6219646;28;20371;-75
2021/01/28 06:06:52;;;;;;;2.83;2.73;;;;;;;-3.51;82.42;100569.28;6221981;28;20306;-73
2021/01/28 06:10:55;;;;;;;3.03;2.93;;;;;;;-3.37;83.02;100571.59;6222358;28;20293;-75
2021/01/28 06:14:42;;;;;;;2.50;2.50;;;;;;;-3.53;83.28;100563.22;6224167;28;20298;-72
2021/01/28 06:18:43;;;;;;;3.23;3.00;;;;;;;-3.52;83.50;100556.94;6226278;28;20199;-73
2021/01/28 06:22:14;;;;;;;2.80;2.70;;;;;;;-3.58;84.06;100574.31;6213372;28;20312;-72
2021/01/28 06:25:54;;;;;;;3.17;2.73;;;;;;;-3.57;85.46;100569.81;6226006;28;20191;-72
2021/01/28 06:29:25;;;;;;;3.10;2.90;;;;;;;-3.52;84.79;100575.59;6222074;28;20266;-73
2021/01/28 06:32:58;;;;;;;2.87;2.63;;;;;;;-3.44;84.67;100570.44;6224240;28;20209;-72
2021/01/28 06:36:53;;;;;;;2.40;2.30;;;;;;;-3.47;84.14;100565.38;6218266;28;20233;-73
2021/01/28 06:40:18;;;;;;;2.30;2.20;;;;;;;-3.54;85.07;100562.38;6220224;28;20214;-73
2021/01/28 06:44:04;;;;;;;3.10;2.90;;;;;;;-3.47;85.92;100566.22;6216737;28;20202;-72
2021/01/28 06:47:40;;;;;;;2.87;2.67;;;;;;;-3.36;85.48;100567.91;6219341;28;20220;-73
2021/01/28 06:51:03;;;;;;;3.13;2.97;;;;;;;-3.50;85.59;100576.31;6221087;28;20199;-74
2021/01/28 06:54:19;;;;;;;2.80;2.70;;;;;;;-3.45;84.95;100574.06;6219244;28;20222;-74
2021/01/28 06:57:45;;;;;;;3.00;2.83;;;;;;;-3.48;84.34;100569.00;6223953;28;20212;-75
2021/01/28 07:01:12;;;;;;;2.80;2.70;;;;;;;-3.77;86.08;100557.38;6223486;28;20205;-74
2021/01/28 07:04:22;;;;;;;3.10;3.00;;;;;;;-3.64;86.63;100563.31;6230291;28;20206;-73
2021/01/28 07:07:47;;;;;;;3.03;2.93;;;;;;;-3.61;85.96;100549.72;6217172;28;20245;-75
2021/01/28 07:11:20;;;;;;;3.30;3.20;;;;;;;-3.43;86.14;100556.97;6225451;28;20207;-74
2021/01/28 07:14:41;;;;;;;2.63;2.60;;;;;;;-3.43;86.55;100561.44;6231175;28;20224;-74
2021/01/28 07:18:03;;;;;;;3.60;2.97;;;;;;;-3.58;86.38;100552.13;6221388;28;21852;-74
2021/01/28 07:21:12;;;;;;;2.60;2.50;;;;;;;-3.54;86.69;100553.53;6220805;28;20846;-73
2021/01/28 07:24:35;;;;;;;2.63;2.43;;;;;;;-3.78;86.95;100542.34;6221340;28;20304;-73
2021/01/28 07:28:01;;;;;;;3.13;2.83;;;;;;;-3.88;87.83;100551.13;6225362;28;20649;-74
2021/01/28 07:31:42;;;;;;;2.77;2.53;;;;;;;-3.84;88.61;100541.91;6241024;28;20312;-73
2021/01/28 07:35:25;;;;;;;2.70;2.70;;;;;;;-3.90;88.56;100542.41;6237039;28;20282;-74
2021/01/28 07:38:52;;;;;;;2.90;2.47;;;;;;;-3.71;89.03;100535.50;6232096;28;20379;-74
2021/01/28 07:42:29;;;;;;;3.53;2.87;;;;;;;-3.85;88.18;100539.34;6249617;28;20193;-71
2021/01/28 07:46:11;;;;;;;3.20;3.00;;;;;;;-3.77;88.71;100531.53;6255389;28;20344;-74
2021/01/28 07:49:39;;;;;;;3.17;2.97;;;;;;;-3.55;88.67;100530.53;6236518;28;20213;-72
2021/01/28 07:53:37;;;;;;;2.93;2.73;;;;;;;-3.47;88.65;100520.88;6249035;28;20584;-75
2021/01/28 07:56:46;;;;;;;3.07;2.87;;;;;;;-3.43;88.19;100524.09;6250403;28;20250;-75
2021/01/28 07:59:56;;;;;;;4.00;2.87;;;;;;;-3.40;88.35;100518.50;6248061;28;20235;-74
2021/01/28 08:03:03;;;;;;;3.13;3.03;;;;;;;-3.46;87.96;100521.69;6251360;28;20676;-73
2021/01/28 08:06:12;;;;;;;2.50;2.50;;;;;;;-3.41;88.29;100523.00;6257082;28;20242;-75
2021/01/28 08:09:16;;;;;;;3.00;2.80;;;;;;;-3.26;88.04;100515.44;6242153;28;20559;-74
2021/01/28 08:12:25;;;;;;;2.77;2.63;;;;;;;-3.25;87.79;100517.16;6246679;28;20197;-74
2021/01/28 08:15:34;;;;;;;4.67;2.80;;;;;;;-3.34;87.28;100512.63;6249417;28;20221;-72
2021/01/28 08:18:40;;;;;;;2.93;2.63;;;;;;;-3.41;87.82;100508.81;6246826;28;20198;-74
2021/01/28 08:21:43;;;;;;;3.00;2.70;;;;;;;-3.39;88.97;100509.53;6249001;28;20270;-74
2021/01/28 08:24:54;;;;;;;2.70;2.47;;;;;;;-3.33;88.45;100503.63;6244604;28;20259;-73
2021/01/28 08:28:08;;;;;;;2.50;2.50;;;;;;;-3.07;87.89;100499.47;6241357;28;20237;-73
2021/01/28 08:31:20;;;;;;;5.03;2.90;;;;;;;-3.13;88.80;100510.69;6246530;28;20186;-73
2021/01/28 08:34:28;;;;;;;2.70;2.60;;;;;;;-2.97;87.92;100500.34;6253113;28;20216;-72
2021/01/28 08:37:33;;;;;;;2.63;2.60;;;;;;;-2.84;87.14;100500.91;6251500;28;20641;-74
2021/01/28 08:40:37;;;;;;;2.53;2.50;;;;;;;-2.82;86.79;100498.94;6253468;28;20198;-73
2021/01/28 08:43:41;;;;;;;3.47;3.27;;;;;;;-2.89;87.27;100507.66;6254768;28;20209;-74
2021/01/28 08:46:46;;;;;;;3.10;2.90;;;;;;;-2.82;86.93;100501.63;6247496;28;20201;-74
2021/01/28 08:50:00;;;;;;;3.13;2.90;;;;;;;-2.80;86.41;100499.63;6252656;28;20574;-73
2021/01/28 08:53:06;;;;;;;3.23;3.00;;;;;;;-2.77;87.18;100501.19;6245698;28;20653;-74
2021/01/28 08:56:19;;;;;;;2.83;2.73;;;;;;;-3.04;87.34;100488.53;6242273;28;20206;-74
2021/01/28 08:59:29;;;;;;;3.47;3.17;;;;;;;-2.89;87.57;100491.63;6250441;28;20576;-74
2021/01/28 09:02:37;;;;;;;2.63;2.53;;;;;;;-2.84;87.76;100484.06;6256940;28;20552;-74
2021/01/28 09:05:41;;;;;;;2.80;2.70;;;;;;;-2.90;86.69;100490.78;6245284;28;20231;-74
2021/01/28 09:08:44;;;;;;;2.40;2.40;;;;;;;-2.95;88.04;100493.03;6254388;28;20613;-73
2021/01/28 09:11:53;;;;;;;3.00;2.80;;;;;;;-3.08;88.36;100480.97;6262294;28;20203;-73
2021/01/28 09:15:10;;;;;;;3.17;3.07;;;;;;;-3.10;88.78;100489.09;6247489;28;20583;-74
2021/01/28 09:18:26;;;;;;;2.50;2.40;;;;;;;-2.98;89.23;100480.00;6251369;28;20203;-73
2021/01/28 09:21:38;;;;;;;3.93;3.13;;;;;;;-2.88;89.01;100483.50;6244593;28;20632;-72
2021/01/28 09:24:48;;;;;;;4.03;2.90;;;;;;;-2.82;89.15;100480.25;6258321;28;20219;-74
2021/01/28 09:28:01;;;;;;;3.00;2.80;;;;;;;-2.77;88.35;100478.00;6230438;28;20230;-73
2021/01/28 09:31:20;;;;;;;3.80;2.90;;;;;;;-2.89;88.68;100473.78;6256971;28;20187;-73
2021/01/28 09:34:26;;;;;;;4.03;3.67;;;;;;;-2.81;89.30;100467.75;6248008;28;20276;-74
2021/01/28 09:37:30;;;;;;;3.87;3.57;;;;;;;-2.85;89.95;100472.53;6259359;28;20223;-74
2021/01/28 09:40:36;;;;;;;3.80;3.50;;;;;;;-2.78;89.67;100468.34;6255669;28;20193;-74
2021/01/28 09:43:39;;;;;;;3.70;3.40;;;;;;;-2.85;90.14;100472.53;6252785;28;20649;-73
2021/01/28 09:46:43;;;;;;;4.47;4.17;;;;;;;-2.81;89.76;100463.25;6249521;28;20198;-74
2021/01/28 09:49:49;;;;;;;4.00;3.47;;;;;;;-2.94;90.28;100472.53;6245788;28;20514;-74
2021/01/28 09:52:52;;;;;;;7.70;3.20;;;;;;;-2.97;90.10;100467.47;6245391;28;20192;-73
2021/01/28 09:55:56;;;;;;;3.80;3.50;;;;;;;-3.07;91.21;100462.13;6243608;28;20246;-76
2021/01/28 09:59:00;;;;;;;6.43;4.03;;;;;;;-3.01;91.74;100460.72;6243397;28;20681;-74
2021/01/28 10:02:05;;;;;;;3.43;3.10;;;;;;;-2.80;92.05;100459.59;6252581;28;20202;-73
2021/01/28 10:05:11;;;;;;;3.47;2.80;;;;;;;-2.69;91.59;100448.78;6261725;28;20199;-73
2021/01/28 10:08:16;;;;;;;3.27;2.97;;;;;;;-2.67;91.11;100454.00;6256512;28;20221;-73
2021/01/28 10:11:20;;;;;;;3.27;3.17;;;;;;;-2.70;90.07;100443.59;6244450;28;20199;-75
2021/01/28 10:14:23;;;;;;;3.33;3.17;;;;;;;-2.79;90.85;100450.63;6249795;28;20202;-73
2021/01/28 10:17:27;;;;;;;2.90;2.80;;;;;;;-2.80;91.04;100443.56;6245042;28;20463;-73
2021/01/28 10:20:32;;;;;;;3.60;3.30;;;;;;;-2.70;91.38;100439.09;6245446;28;20607;-75
2021/01/28 10:23:35;;;;;;;3.33;3.23;;;;;;;-2.74;91.06;100443.00;6248883;28;20249;-72
2021/01/28 10:26:38;;;;;;;3.50;3.20;;;;;;;-2.72;91.13;100443.72;6257375;28;20214;-73
2021/01/28 10:29:43;;;;;;;3.70;3.40;;;;;;;-2.76;91.60;100434.31;6257026;28;20234;-72
2021/01/28 10:32:48;;;;;;;3.60;3.20;;;;;;;-2.75;91.17;100441.31;6257798;28;20199;-77
2021/01/28 10:35:52;;;;;;;4.03;3.03;;;;;;;-2.71;91.51;100425.88;6242261;28;20222;-74
2021/01/28 10:38:56;;;;;;;3.00;2.90;;;;;;;-2.56;91.91;100425.28;6250784;28;20219;-74
2021/01/28 10:41:59;;;;;;;3.07;2.83;;;;;;;-2.56;91.84;100425.28;6248554;28;20614;-72
2021/01/28 10:45:05;;;;;;;3.10;2.90;;;;;;;-2.57;92.03;100412.09;6249688;28;20226;-74
2021/01/28 10:48:12;;;;;;;3.07;2.97;;;;;;;-2.45;91.44;100410.09;6248998;28;20195;-75
2021/01/28 10:51:17;;;;;;;7.40;3.20;;;;;;;-2.53;91.27;100419.66;6248985;28;20202;-73
2021/01/28 10:54:20;;;;;;;2.97;2.57;;;;;;;-2.45;91.15;100404.75;6235150;28;20212;-73
2021/01/28 10:57:24;;;;;;;3.00;2.90;;;;;;;-2.54;91.27;100406.44;6246147;28;20655;-74
2021/01/28 11:00:28;;;;;;;2.67;2.57;;;;;;;-2.58;92.40;100405.91;6244539;28;20199;-75
2021/01/28 11:03:33;;;;;;;3.93;2.90;;;;;;;-2.60;93.15;100396.34;6239690;28;20358;-74
2021/01/28 11:06:37;;;;;;;3.10;2.90;;;;;;;-2.59;93.92;100400.69;6237690;28;20240;-74
2021/01/28 11:09:41;;;;;;;2.80;2.70;;;;;;;-2.56;93.61;100393.25;6239550;28;20199;-75
2021/01/28 11:12:45;;;;;;;3.67;3.43;;;;;;;-2.53;93.61;100392.94;6246253;28;20291;-75
2021/01/28 11:15:48;;;;;;;4.00;3.30;;;;;;;-2.51;94.13;100390.13;6242047;28;20295;-73
2021/01/28 11:18:52;;;;;;;2.67;2.67;;;;;;;-2.57;95.24;100380.84;6243641;28;20198;-73
2021/01/28 11:21:56;;;;;;;3.00;2.80;;;;;;;-2.59;95.06;100388.19;6244921;28;20203;-74
2021/01/28 11:25:00;;;;;;;2.47;2.37;;;;;;;-2.59;95.76;100377.50;6243036;28;20898;-74
2021/01/28 11:28:05;;;;;;;2.90;2.80;;;;;;;-2.59;97.12;100372.16;6245192;28;20266;-74
2021/01/28 11:31:08;;;;;;;2.50;2.40;;;;;;;-2.61;96.57;100362.59;6243971;28;20206;-75
2021/01/28 11:34:11;;;;;;;3.20;2.53;;;;;;;-2.58;97.04;100368.50;6247426;28;20314;-74
2021/01/28 11:37:15;;;;;;;4.23;3.00;;;;;;;-2.46;98.10;100362.97;6243141;28;20265;-74
2021/01/28 11:40:21;;;;;;;3.17;2.73;;;;;;;-2.52;97.51;100370.59;6240836;28;20262;-73
2021/01/28 11:43:25;;;;;;;2.00;2.00;;;;;;;-2.42;97.68;100357.22;6245434;28;20206;-75
2021/01/28 11:46:28;;;;;;;2.60;2.60;;;;;;;-2.41;96.87;100352.72;6248572;28;20209;-73
2021/01/28 11:49:32;;;;;;;2.30;2.20;;;;;;;-2.35;97.34;100344.94;6244046;28;20221;-74
2021/01/28 11:52:36;;;;;;;2.43;2.33;;;;;;;-2.30;97.64;100349.84;6253109;28;20631;-74
2021/01/28 11:55:39;;;;;;;5.73;2.37;;;;;;;-2.23;97.42;100350.94;6254299;28;20225;-74
2021/01/28 11:58:43;;;;;;;2.47;2.47;;;;;;;-2.25;97.27;100347.56;6252002;28;20203;-75
2021/01/28 12:01:46;;;;;;;2.57;2.47;;;;;;;-2.10;97.24;100346.09;6247619;28;20211;-73
2021/01/28 12:04:49;;;;;;;2.27;2.27;;;;;;;-2.12;96.39;100332.06;6245970;28;20206;-74
2021/01/28 12:07:55;;;;;;;2.70;2.60;;;;;;;-2.15;97.58;100345.69;6245155;28;20194;-73
2021/01/28 12:10:59;;;;;;;2.37;2.27;;;;;;;-2.04;97.23;100329.47;6249305;28;20547;-73
2021/01/28 12:14:03;;;;;;;2.70;2.60;;;;;;;-2.04;97.78;100329.47;6247939;28;20253;-75
2021/01/28 12:17:07;;;;;;;2.57;2.40;;;;;;;-2.08;98.10;100334.28;6248212;28;20666;-76
2021/01/28 12:20:15;;;;;;;2.87;2.73;;;;;;;-2.05;98.61;100317.94;6225929;28;20302;-77
2021/01/28 12:23:19;;;;;;;2.57;2.47;;;;;;;-1.98;98.33;100312.84;6229418;28;20424;-77
2021/01/28 12:26:24;;;;;;;2.43;2.33;;;;;;;-2.00;98.28;100309.47;6247548;28;20209;-72
2021/01/28 12:29:28;;;;;;;2.93;2.73;;;;;;;-2.02;98.21;100311.47;6254280;28;20231;-72
2021/01/28 12:32:31;;;;;;;1.90;1.90;;;;;;;-1.97;99.02;100309.16;6247705;28;20199;-73
2021/01/28 12:35:34;;;;;;;2.77;2.67;;;;;;;-1.93;99.96;100305.22;6243531;28;20205;-74
2021/01/28 12:38:39;;;;;;;2.87;2.67;;;;;;;-1.91;99.72;100309.44;6245234;28;20224;-73
2021/01/28 12:41:43;;;;;;;2.47;2.27;;;;;;;-1.90;99.48;100307.59;6249286;28;20196;-73
2021/01/28 12:44:47;;;;;;;2.70;2.60;;;;;;;-1.93;99.88;100310.56;6243984;28;20241;-74
2021/01/28 12:47:51;;;;;;;2.40;2.30;;;;;;;-1.92;100.00;100312.25;6245719;28;20226;-75
2021/01/28 12:50:54;;;;;;;2.20;2.20;;;;;;;-1.88;100.00;100308.28;6249395;28;20226;-73
2021/01/28 12:53:58;;;;;;;2.27;2.27;;;;;;;-1.95;100.00;100308.03;6247272;28;20583;-73
2021/01/28 12:57:04;;;;;;;2.17;2.07;;;;;;;-1.89;100.00;100298.56;6257737;28;20230;-74
2021/01/28 13:00:10;;;;;;;2.37;2.27;;;;;;;-1.89;100.00;100293.22;6246144;28;20654;-74
2021/01/28 13:03:19;;;;;;;2.60;2.50;;;;;;;-1.92;100.00;100296.19;6243564;28;20323;-73
2021/01/28 13:06:22;;;;;;;2.40;2.40;;;;;;;-1.94;100.00;100291.00;6244682;28;20852;-75
2021/01/28 13:09:26;;;;;;;2.63;2.50;;;;;;;-1.85;100.00;100299.13;6245373;28;20607;-73
2021/01/28 13:12:29;;;;;;;2.77;2.63;;;;;;;-1.88;100.00;100292.25;6247729;28;20681;-74
2021/01/28 13:15:35;;;;;;;2.30;2.23;;;;;;;-1.83;100.00;100292.63;6248543;28;20214;-74
2021/01/28 13:18:39;;;;;;;2.50;2.40;;;;;;;-1.80;100.00;100295.00;6250749;28;20315;-74
2021/01/28 13:21:42;;;;;;;2.40;2.30;;;;;;;-1.79;100.00;100291.31;6244390;28;20195;-73
2021/01/28 13:24:46;;;;;;;2.40;2.30;;;;;;;-1.76;100.00;100296.38;6248344;28;20677;-74
2021/01/28 13:27:49;;;;;;;2.10;2.10;;;;;;;-1.72;100.00;100281.69;6245232;28;20208;-74
2021/01/28 13:30:53;;;;;;;2.20;2.20;;;;;;;-1.73;100.00;100272.00;6242264;28;20212;-76
2021/01/28 13:33:57;;;;;;;1.80;1.70;;;;;;;-1.75;100.00;100276.69;6245338;28;20655;-73
2021/01/28 13:37:00;;;;;;;2.20;2.10;;;;;;;-1.77;100.00;100286.66;6254040;28;20235;-74
2021/01/28 13:40:06;;;;;;;2.63;2.40;;;;;;;-1.76;100.00;100279.47;6252730;28;20436;-76
2021/01/28 13:43:10;;;;;;;2.47;2.27;;;;;;;-1.72;100.00;100276.34;6249228;28;20286;-74
2021/01/28 13:46:13;;;;;;;2.57;2.23;;;;;;;-1.67;100.00;100279.41;6245087;28;20294;-74
2021/01/28 13:49:17;;;;;;;2.17;1.97;;;;;;;-1.63;100.00;100275.44;6246912;28;20221;-73
2021/01/28 13:52:20;;;;;;;2.20;2.20;;;;;;;-1.57;100.00;100269.50;6250752;28;20275;-73
2021/01/28 13:55:26;;;;;;;2.07;2.07;;;;;;;-1.61;100.00;100262.75;6252933;28;20268;-74
2021/01/28 13:58:31;;;;;;;2.47;2.27;;;;;;;-1.56;100.00;100267.63;6248065;28;20203;-73
2021/01/28 14:01:34;;;;;;;1.83;1.83;;;;;;;-1.51;100.00;100268.88;6245196;28;20215;-74
2021/01/28 14:04:38;;;;;;;2.00;2.00;;;;;;;-1.53;100.00;100264.66;6248766;28;20208;-73
2021/01/28 14:07:41;;;;;;;1.70;1.70;;;;;;;-1.50;100.00;100267.88;6243753;28;20681;-75
2021/01/28 14:10:45;;;;;;;2.97;2.10;;;;;;;-1.54;100.00;100274.53;6253158;28;20235;-73
2021/01/28 14:13:51;;;;;;;1.97;1.97;;;;;;;-1.50;100.00;100265.22;6251139;28;20575;-73
2021/01/28 14:16:54;;;;;;;2.47;2.37;;;;;;;-1.49;100.00;100266.88;6242787;28;20227;-73
2021/01/28 14:19:57;;;;;;;2.20;2.20;;;;;;;-1.46;100.00;100269.25;6247317;28;20200;-74
2021/01/28 14:23:01;;;;;;;2.37;2.27;;;;;;;-1.41;100.00;100269.63;6239258;28;20479;-74
2021/01/28 14:26:05;;;;;;;3.87;2.10;;;;;;;-1.45;100.00;100257.56;6243383;28;20568;-73
2021/01/28 14:29:08;;;;;;;2.73;2.53;;;;;;;-1.44;100.00;100264.56;6250243;28;20285;-74
2021/01/28 14:32:11;;;;;;;2.40;2.30;;;;;;;-1.44;100.00;100263.75;6251482;28;20568;-74
2021/01/28 14:35:19;;;;;;;1.70;1.70;;;;;;;-1.40;100.00;100265.13;6251128;28;20578;-73
2021/01/28 14:38:23;;;;;;;2.20;2.20;;;;;;;-1.36;100.00;100266.47;6250645;28;20601;-76
2021/01/28 14:41:27;;;;;;;2.37;2.27;;;;;;;-1.32;100.00;100263.38;6243132;28;20316;-74
2021/01/28 14:44:30;;;;;;;2.10;2.10;;;;;;;-1.33;100.00;100261.66;6244784;28;20197;-74
2021/01/28 14:47:34;;;;;;;1.97;1.97;;;;;;;-1.39;100.00;100262.28;6244099;28;20295;-74